Azalea Ace — A8ZJ6 — position and weather

sailwx.info

Track history (hours):
 
Tides and Currents Weather Stations Pressure Air Temp Water Temp Dewpoint Dewpoint Depression Visibility Wind Speed Wind Dir Waves Ship Positions

Azalea Ace

Last reported at 2015-Mar-20 18:18 UTC. Time now 2015-Mar-31 23:53 UTC.
Position N 35°24' W 126°51'.
Warning: this ship's position is 11 days out of date.

Length 180 m; draft 7.6 m.

Type: Cargo ship. MMSI: 636015228.

Date/timePositionNaut miles runAvg speedWind from/ knotsBaromVisibWave heightAir tempDewpointWater temp
2015-Mar-20 18:18N 35°24' W 126°51'1113.1
2015-Mar-20 17:28N 35°16' W 126°42'1813.7
2015-Mar-20 16:11N 35°03' W 126°28'1116.6
2015-Mar-20 15:33N 34°55' W 126°20'1313.5
2015-Mar-20 14:33N 34°44' W 126°09'1313.3
2015-Mar-20 13:33N 34°34' W 125°58'1413.1
2015-Mar-20 12:30N 34°24' W 125°47'1313.2
2015-Mar-20 11:33N 34°14' W 125°38'1313.3
2015-Mar-20 10:33N 34°04' W 125°27'1313.4
2015-Mar-20 09:33N 33°54' W 125°17'1313.4
2015-Mar-20 08:33N 33°44' W 125°06'1313.4
2015-Mar-20 07:34N 33°34' W 124°56'1313.2
2015-Mar-20 06:33N 33°24' W 124°45'1313.2
2015-Mar-20 05:33N 33°14' W 124°35'3012.3
2015-Mar-20 03:07N 32°54' W 124°08'1113.3
2015-Mar-20 02:17N 32°54' W 123°55'6312.7
2015-Mar-19 21:19N 32°54' W 122°40'912.4
2015-Mar-19 20:33N 32°54' W 122°28'19313.8
2015-Mar-19 06:33N 33°10' W 118°39'1211.5
2015-Mar-19 05:33N 33°12' W 118°26'1111.4
2015-Mar-19 04:33N 33°14' W 118°13'9 9.3
2015-Mar-19 03:33N 33°23' W 118°08'1211.8
2015-Mar-19 02:33N 33°34' W 118°12'1010.0
2015-Mar-19 01:32N 33°44' W 118°16'3 2.6
2015-Mar-19 00:33N 33°46' W 118°15'0 0.0
2015-Mar-18 20:09N 33°46' W 118°15'0 0.0
2015-Mar-18 19:33N 33°46' W 118°15'0 0.0
2015-Mar-18 18:33N 33°46' W 118°15'0 0.0
2015-Mar-18 17:33N 33°46' W 118°15'0 0.0
2015-Mar-18 16:33N 33°46' W 118°15'0 0.0
2015-Mar-18 15:33N 33°46' W 118°15'0 0.0
2015-Mar-18 14:33N 33°46' W 118°15'0 0.0
2015-Mar-18 13:33N 33°46' W 118°15'0 0.0
2015-Mar-18 12:33N 33°46' W 118°15'0 0.0
2015-Mar-18 11:33N 33°46' W 118°15'0 0.0
2015-Mar-18 10:33N 33°46' W 118°15'0 0.0
2015-Mar-18 09:30N 33°46' W 118°15'0 0.0
2015-Mar-18 08:30N 33°46' W 118°15'0 0.0
2015-Mar-18 07:33N 33°46' W 118°15'0 0.0
2015-Mar-18 06:33N 33°46' W 118°15'0 0.0
2015-Mar-18 05:33N 33°46' W 118°15'0 0.0
2015-Mar-18 04:33N 33°46' W 118°15'0 0.0
2015-Mar-18 03:30N 33°46' W 118°15'0 0.0
2015-Mar-18 02:30N 33°46' W 118°15'0 0.0
2015-Mar-18 01:33N 33°46' W 118°15'1 1.2
2015-Mar-18 00:33N 33°45' W 118°16'7 7.4
2015-Mar-17 23:33N 33°38' W 118°12'8 7.8
2015-Mar-17 22:33N 33°31' W 118°08'8 7.9
2015-Mar-17 21:33N 33°24' W 118°05'7 7.4
2015-Mar-17 20:33N 33°17' W 118°04'8 7.6
2015-Mar-17 19:33N 33°11' W 118°10'8 8.1
2015-Mar-17 18:33N 33°11' W 118°20'8 8.1
2015-Mar-17 17:33N 33°11' W 118°30'8 8.3
2015-Mar-17 16:33N 33°10' W 118°39'8 8.2
2015-Mar-17 15:33N 33°09' W 118°49'8 8.3
2015-Mar-17 14:33N 33°07' W 118°59'1312.8
2015-Mar-17 13:33N 33°03' W 119°13'1515.1
2015-Mar-17 12:33N 32°58' W 119°30'1515.4
2015-Mar-17 11:33N 32°54' W 119°48'1515.2
2015-Mar-17 10:33N 32°53' W 120°06'1515.4
2015-Mar-17 09:33N 32°53' W 120°24'144 6.9
2015-Mar-16 12:33N 32°54' W 123°16'  
Track history (hours):
 
Tides and Currents Weather Stations Pressure Air Temp Water Temp Dewpoint Dewpoint Depression Visibility Wind Speed Wind Dir Waves Ship Positions

Azalea Ace

Last reported at 2015-Mar-20 18:18 UTC. Time now 2015-Mar-31 23:53 UTC.
Position N 35°24' W 126°51'.
Warning: this ship's position is 11 days out of date.

Length 180 m; draft 7.6 m.

Type: Cargo ship. MMSI: 636015228.

Date/timePositionNaut miles runAvg speedWind from/ knotsBaromVisibWave heightAir tempDewpointWater temp
2015-Mar-20 18:18N 35°24' W 126°51'1113.1
2015-Mar-20 17:28N 35°16' W 126°42'1813.7
2015-Mar-20 16:11N 35°03' W 126°28'1116.6
2015-Mar-20 15:33N 34°55' W 126°20'1313.5
2015-Mar-20 14:33N 34°44' W 126°09'1313.3
2015-Mar-20 13:33N 34°34' W 125°58'1413.1
2015-Mar-20 12:30N 34°24' W 125°47'1313.2
2015-Mar-20 11:33N 34°14' W 125°38'1313.3
2015-Mar-20 10:33N 34°04' W 125°27'1313.4
2015-Mar-20 09:33N 33°54' W 125°17'1313.4
2015-Mar-20 08:33N 33°44' W 125°06'1313.4
2015-Mar-20 07:34N 33°34' W 124°56'1313.2
2015-Mar-20 06:33N 33°24' W 124°45'1313.2
2015-Mar-20 05:33N 33°14' W 124°35'3012.3
2015-Mar-20 03:07N 32°54' W 124°08'1113.3
2015-Mar-20 02:17N 32°54' W 123°55'6312.7
2015-Mar-19 21:19N 32°54' W 122°40'912.4
2015-Mar-19 20:33N 32°54' W 122°28'19313.8
2015-Mar-19 06:33N 33°10' W 118°39'1211.5
2015-Mar-19 05:33N 33°12' W 118°26'1111.4
2015-Mar-19 04:33N 33°14' W 118°13'9 9.3
2015-Mar-19 03:33N 33°23' W 118°08'1211.8
2015-Mar-19 02:33N 33°34' W 118°12'1010.0
2015-Mar-19 01:32N 33°44' W 118°16'3 2.6
2015-Mar-19 00:33N 33°46' W 118°15'0 0.0
2015-Mar-18 20:09N 33°46' W 118°15'0 0.0
2015-Mar-18 19:33N 33°46' W 118°15'0 0.0
2015-Mar-18 18:33N 33°46' W 118°15'0 0.0
2015-Mar-18 17:33N 33°46' W 118°15'0 0.0
2015-Mar-18 16:33N 33°46' W 118°15'0 0.0
2015-Mar-18 15:33N 33°46' W 118°15'0 0.0
2015-Mar-18 14:33N 33°46' W 118°15'0 0.0
2015-Mar-18 13:33N 33°46' W 118°15'0 0.0
2015-Mar-18 12:33N 33°46' W 118°15'0 0.0
2015-Mar-18 11:33N 33°46' W 118°15'0 0.0
2015-Mar-18 10:33N 33°46' W 118°15'0 0.0
2015-Mar-18 09:30N 33°46' W 118°15'0 0.0
2015-Mar-18 08:30N 33°46' W 118°15'0 0.0
2015-Mar-18 07:33N 33°46' W 118°15'0 0.0
2015-Mar-18 06:33N 33°46' W 118°15'0 0.0
2015-Mar-18 05:33N 33°46' W 118°15'0 0.0
2015-Mar-18 04:33N 33°46' W 118°15'0 0.0
2015-Mar-18 03:30N 33°46' W 118°15'0 0.0
2015-Mar-18 02:30N 33°46' W 118°15'0 0.0
2015-Mar-18 01:33N 33°46' W 118°15'1 1.2
2015-Mar-18 00:33N 33°45' W 118°16'7 7.4
2015-Mar-17 23:33N 33°38' W 118°12'8 7.8
2015-Mar-17 22:33N 33°31' W 118°08'8 7.9
2015-Mar-17 21:33N 33°24' W 118°05'7 7.4
2015-Mar-17 20:33N 33°17' W 118°04'8 7.6
2015-Mar-17 19:33N 33°11' W 118°10'8 8.1
2015-Mar-17 18:33N 33°11' W 118°20'8 8.1
2015-Mar-17 17:33N 33°11' W 118°30'8 8.3
2015-Mar-17 16:33N 33°10' W 118°39'8 8.2
2015-Mar-17 15:33N 33°09' W 118°49'8 8.3
2015-Mar-17 14:33N 33°07' W 118°59'1312.8
2015-Mar-17 13:33N 33°03' W 119°13'1515.1
2015-Mar-17 12:33N 32°58' W 119°30'1515.4
2015-Mar-17 11:33N 32°54' W 119°48'1515.2
2015-Mar-17 10:33N 32°53' W 120°06'1515.4
2015-Mar-17 09:33N 32°53' W 120°24'144 6.9
2015-Mar-16 12:33N 32°54' W 123°16'  

Dump ship's entire track history